Time;durP1;ratioP1;P1;durP2;ratioP2;P2;SDS_P1;SDS_P2;PMS_P1;PMS_P2;Temp;Humidity;BMP_temperature;BMP_pressure;BME280_temperature;BME280_humidity;BME280_pressure;Samples;Min_cycle;Max_cycle;Signal;HPM_P1;HPM_P2
2022/10/20 00:00:08;;;;;;;12.80;5.10;;;;;;;-143.48;79.52;79517.56;5015945;28;20033;-71
2022/10/20 00:02:34;;;;;;;13.65;4.82;;;;;;;-143.48;79.71;79519.56;4998329;28;20030;-71
2022/10/20 00:04:59;;;;;;;11.07;4.65;;;;;;;-143.48;79.06;79515.59;5015803;28;20022;-72
2022/10/20 00:07:24;;;;;;;13.57;5.32;;;;;;;-143.48;79.38;79513.63;5015911;28;20495;-71
2022/10/20 00:09:49;;;;;;;10.05;5.10;;;;;;;-143.48;79.63;79515.59;5014520;28;20072;-71
2022/10/20 00:12:15;;;;;;;19.13;7.10;;;;;;;-143.48;79.86;79517.56;5014484;28;20065;-71
2022/10/20 00:14:40;;;;;;;7.80;4.90;;;;;;;-143.48;79.53;79529.47;5015669;28;20049;-71
2022/10/20 00:17:05;;;;;;;12.13;5.40;;;;;;;-143.48;79.32;79517.56;4998464;28;20018;-71
2022/10/20 00:19:31;;;;;;;15.32;5.40;;;;;;;-143.48;79.32;79529.47;5015678;28;20042;-72
2022/10/20 00:21:57;;;;;;;9.65;5.00;;;;;;;-143.48;79.61;79529.47;5015550;28;20025;-71
2022/10/20 00:24:23;;;;;;;9.23;5.20;;;;;;;-143.48;80.27;79533.44;5014180;28;20034;-71
2022/10/20 00:26:48;;;;;;;9.15;5.47;;;;;;;-143.48;80.42;79531.47;5014128;28;20073;-72
2022/10/20 00:29:13;;;;;;;8.73;5.20;;;;;;;-143.48;79.87;79507.66;4997852;28;20418;-72
2022/10/20 00:31:39;;;;;;;11.93;5.60;;;;;;;-143.48;79.35;79523.53;5015426;28;20030;-71
2022/10/20 00:34:04;;;;;;;11.15;5.60;;;;;;;-143.48;80.32;79523.53;5014142;28;20462;-72
2022/10/20 00:36:29;;;;;;;10.73;5.78;;;;;;;-143.48;79.54;79537.41;5015298;28;20026;-71
2022/10/20 00:38:59;;;;;;;10.00;5.55;;;;;;;-143.48;80.40;79543.38;5015195;28;20049;-72
2022/10/20 00:41:25;;;;;;;10.20;5.38;;;;;;;-143.48;80.75;79519.56;5013885;28;20076;-72
2022/10/20 00:43:52;;;;;;;11.32;5.47;;;;;;;-143.48;80.06;79505.69;5014507;28;20217;-72
2022/10/20 00:46:24;;;;;;;8.50;5.30;;;;;;;-143.48;79.97;79511.63;4997489;28;20069;-72
2022/10/20 00:49:05;;;;;;;8.40;5.25;;;;;;;-143.48;80.00;79491.78;4997274;28;20037;-71
2022/10/20 00:51:32;;;;;;;13.60;5.80;;;;;;;-143.48;79.64;79501.72;5015139;28;20370;-72
2022/10/20 00:54:07;;;;;;;17.08;5.85;;;;;;;-143.48;79.96;79489.81;4997636;28;20045;-71
2022/10/20 00:56:35;;;;;;;9.18;5.55;;;;;;;-143.48;80.11;79503.69;5015003;28;20033;-71
2022/10/20 00:59:02;;;;;;;14.40;5.78;;;;;;;-143.48;80.24;79499.72;4997277;28;20115;-71
2022/10/20 01:01:28;;;;;;;12.80;5.82;;;;;;;-143.48;79.79;79505.69;5014808;28;20033;-71
2022/10/20 01:03:53;;;;;;;9.75;5.53;;;;;;;-143.48;79.91;79489.81;5014679;28;20033;-71
2022/10/20 01:06:21;;;;;;;11.50;5.43;;;;;;;-143.48;79.71;79503.69;4997160;28;20030;-70
2022/10/20 01:08:47;;;;;;;10.77;5.60;;;;;;;-143.48;80.49;79515.59;4997046;28;20022;-71
2022/10/20 01:11:45;;;;;;;10.93;5.63;;;;;;;-143.48;80.47;79503.69;5014770;28;20034;-71
2022/10/20 01:14:13;;;;;;;12.70;6.13;;;;;;;-143.48;80.66;79493.78;5012903;28;20033;-71
2022/10/20 01:16:52;;;;;;;10.05;5.80;;;;;;;-143.48;80.58;79493.78;4997032;28;20061;-72
2022/10/20 01:19:55;;;;;;;11.85;5.85;;;;;;;-143.48;80.46;79499.72;5015061;28;20030;-71
2022/10/20 01:22:26;;;;;;;11.57;5.70;;;;;;;-143.48;80.38;79491.78;5014579;28;20450;-72
2022/10/20 01:25:43;;;;;;;12.15;5.50;;;;;;;-143.48;81.08;79503.69;5014548;28;20036;-72
2022/10/20 01:28:40;;;;;;;15.13;6.00;;;;;;;-143.48;80.84;79489.81;5014521;28;20076;-71
2022/10/20 01:31:21;;;;;;;16.88;5.80;;;;;;;-143.48;80.62;79491.78;5016500;28;20018;-74
2022/10/20 01:33:57;;;;;;;12.40;6.07;;;;;;;-143.48;81.29;79479.88;5017654;28;20026;-72
2022/10/20 01:36:46;;;;;;;9.48;5.43;;;;;;;-143.48;81.11;79487.81;5015620;28;20030;-71
2022/10/20 01:39:18;;;;;;;10.27;5.50;;;;;;;-143.48;81.75;79479.88;5013129;28;20037;-71
2022/10/20 01:41:57;;;;;;;10.75;6.07;;;;;;;-143.48;81.76;79473.94;5013069;28;20026;-70
2022/10/20 01:44:25;;;;;;;11.02;6.05;;;;;;;-143.48;81.39;79460.06;5014258;28;20030;-71
2022/10/20 01:46:52;;;;;;;9.93;5.65;;;;;;;-143.48;81.39;79460.06;5014186;28;20103;-71
2022/10/20 01:49:18;;;;;;;8.65;5.63;;;;;;;-143.48;80.87;79434.25;5014017;28;20046;-70
2022/10/20 01:51:43;;;;;;;13.82;5.60;;;;;;;-143.48;80.41;79440.22;5014207;28;20044;-70
2022/10/20 01:54:26;;;;;;;9.95;5.70;;;;;;;-143.48;81.11;79444.19;5013169;28;20033;-70
2022/10/20 01:57:29;;;;;;;11.68;5.80;;;;;;;-143.48;80.58;79450.13;5014053;28;20493;-71
2022/10/20 02:00:00;;;;;;;9.65;6.18;;;;;;;-143.48;80.97;79456.09;5013822;28;20101;-71
2022/10/20 02:02:49;;;;;;;9.75;6.05;;;;;;;-143.48;81.06;79442.19;5013995;28;20044;-71
2022/10/20 02:05:27;;;;;;;12.18;6.63;;;;;;;-143.48;81.05;79446.16;5012388;28;20022;-71
2022/10/20 02:08:08;;;;;;;11.82;6.57;;;;;;;-143.48;81.31;79434.25;5013727;28;20040;-71
2022/10/20 02:10:44;;;;;;;10.20;6.20;;;;;;;-143.48;81.21;79418.38;5013716;28;20072;-71
2022/10/20 02:13:10;;;;;;;9.07;6.00;;;;;;;-143.48;80.92;79426.31;5013693;28;20080;-71
2022/10/20 02:15:40;;;;;;;11.90;6.93;;;;;;;-143.48;81.31;79408.47;5013549;28;20045;-71
2022/10/20 02:18:07;;;;;;;9.38;6.07;;;;;;;-143.48;81.08;79410.47;5013548;28;20057;-71
2022/10/20 02:20:33;;;;;;;9.55;6.00;;;;;;;-143.48;81.11;79408.47;5013741;28;20080;-71
2022/10/20 02:23:02;;;;;;;9.45;6.32;;;;;;;-143.48;80.72;79424.34;5013530;28;20470;-71
2022/10/20 02:25:29;;;;;;;12.18;6.65;;;;;;;-143.48;81.89;79436.25;5013334;28;20072;-71
2022/10/20 02:27:56;;;;;;;10.38;6.32;;;;;;;-143.48;81.75;79432.28;5013480;28;20452;-71
2022/10/20 02:30:22;;;;;;;11.65;6.50;;;;;;;-143.48;81.56;79438.22;5012334;28;20026;-72
2022/10/20 02:32:51;;;;;;;16.52;6.55;;;;;;;-143.48;82.30;79452.13;5013337;28;20439;-72
2022/10/20 02:35:21;;;;;;;11.20;6.70;;;;;;;-143.48;82.20;79460.06;5013847;28;20022;-72
2022/10/20 02:37:46;;;;;;;10.68;6.28;;;;;;;-143.48;82.96;79452.13;5013253;28;20449;-71
2022/10/20 02:40:12;;;;;;;13.90;6.97;;;;;;;-143.48;82.83;79426.31;5013355;28;20100;-71
2022/10/20 02:42:39;;;;;;;11.38;6.93;;;;;;;-143.48;82.28;79416.41;4995933;28;20117;-72
2022/10/20 02:45:06;;;;;;;10.35;7.35;;;;;;;-143.48;82.33;79392.59;5011944;28;20033;-71
2022/10/20 02:47:31;;;;;;;16.13;7.05;;;;;;;-143.48;82.10;79396.56;5011967;28;20033;-72
2022/10/20 02:49:56;;;;;;;12.60;6.68;;;;;;;-143.48;82.10;79392.59;5011936;28;20046;-71
2022/10/20 02:52:22;;;;;;;15.88;7.20;;;;;;;-143.48;81.99;79382.69;5013170;28;20588;-70
2022/10/20 02:54:47;;;;;;;12.52;6.57;;;;;;;-143.48;81.83;79378.72;5013130;28;20026;-70
2022/10/20 02:57:12;;;;;;;15.88;6.90;;;;;;;-143.48;81.65;79382.69;4995800;28;20504;-71
2022/10/20 02:59:37;;;;;;;11.68;6.80;;;;;;;-143.48;82.07;79388.63;5013752;28;20049;-71
2022/10/20 03:02:03;;;;;;;14.35;6.90;;;;;;;-143.48;82.13;79384.66;5013163;28;20025;-71
2022/10/20 03:04:28;;;;;;;13.90;6.97;;;;;;;-143.48;82.47;79380.69;4995634;28;20064;-70
2022/10/20 03:06:53;;;;;;;13.20;6.90;;;;;;;-143.48;82.83;79382.69;5016285;28;20025;-71
2022/10/20 03:09:19;;;;;;;16.10;7.43;;;;;;;-143.48;82.87;79364.84;5015803;28;20480;-72
2022/10/20 03:11:44;;;;;;;14.32;8.82;;;;;;;-143.48;82.54;79364.84;5016935;28;20022;-71
2022/10/20 03:14:10;;;;;;;14.30;6.88;;;;;;;-143.48;83.64;79368.78;4999401;28;20108;-71
2022/10/20 03:16:35;;;;;;;12.25;7.75;;;;;;;-143.48;82.84;79354.91;5016831;28;20493;-72
2022/10/20 03:19:00;;;;;;;12.77;6.93;;;;;;;-143.48;82.64;79352.94;5016974;28;20041;-72
2022/10/20 03:21:26;;;;;;;14.75;7.30;;;;;;;-143.48;82.34;79356.91;5015702;28;20033;-72
2022/10/20 03:23:51;;;;;;;14.45;7.40;;;;;;;-143.48;83.09;79345.00;5015916;28;20117;-72
2022/10/20 03:26:16;;;;;;;13.25;7.18;;;;;;;-143.48;83.29;79352.94;4999426;28;20029;-72
2022/10/20 03:28:42;;;;;;;14.30;7.18;;;;;;;-143.48;83.44;79339.03;5016707;28;20072;-72
2022/10/20 03:31:08;;;;;;;15.65;7.90;;;;;;;-143.48;83.51;79350.94;5016718;28;20474;-72
2022/10/20 03:33:33;;;;;;;14.88;7.40;;;;;;;-143.48;83.28;79350.94;5016642;28;20388;-71
2022/10/20 03:35:59;;;;;;;11.75;7.10;;;;;;;-143.48;84.21;79348.97;4998896;28;20080;-72
2022/10/20 03:38:24;;;;;;;16.55;8.35;;;;;;;-143.48;84.35;79327.13;5015196;28;20030;-71
2022/10/20 03:40:49;;;;;;;12.65;7.05;;;;;;;-143.48;83.22;79319.22;5016520;28;20030;-71
2022/10/20 03:43:15;;;;;;;11.38;7.15;;;;;;;-143.48;83.58;79333.09;5016521;28;20088;-72
2022/10/20 03:45:43;;;;;;;14.13;7.03;;;;;;;-143.48;83.66;79297.38;5016202;28;20058;-71
2022/10/20 03:48:10;;;;;;;14.50;6.72;;;;;;;-143.48;82.85;79315.25;5016567;28;20026;-71
2022/10/20 03:50:40;;;;;;;13.15;7.45;;;;;;;-143.48;83.09;79315.25;4998592;28;20081;-72
2022/10/20 03:53:06;;;;;;;17.92;7.70;;;;;;;-143.48;83.58;79307.31;5016146;28;20041;-71
2022/10/20 03:55:32;;;;;;;17.63;8.00;;;;;;;-143.48;83.89;79319.22;5016184;28;20032;-71
2022/10/20 03:57:57;;;;;;;13.52;7.65;;;;;;;-143.48;83.64;79305.31;4998504;28;20112;-71
2022/10/20 04:00:23;;;;;;;16.35;7.78;;;;;;;-143.48;83.68;79303.34;5016084;28;20029;-71
2022/10/20 04:02:48;;;;;;;14.88;7.20;;;;;;;-143.48;83.67;79293.41;5015936;28;20034;-71
2022/10/20 04:05:16;;;;;;;17.52;7.35;;;;;;;-143.48;83.45;79291.44;4998370;28;20493;-71
2022/10/20 04:07:42;;;;;;;12.38;7.00;;;;;;;-143.48;84.10;79263.66;5016133;28;20037;-72
2022/10/20 04:10:09;;;;;;;13.13;7.45;;;;;;;-143.48;83.77;79265.66;5015922;28;20022;-72
2022/10/20 04:12:34;;;;;;;11.23;7.32;;;;;;;-143.48;83.53;79255.72;5015875;28;20025;-70
2022/10/20 04:14:59;;;;;;;13.15;7.25;;;;;;;-143.48;83.75;79263.66;5014681;28;20153;-70
2022/10/20 04:17:25;;;;;;;13.00;7.22;;;;;;;-143.48;83.30;79265.66;5014633;28;20169;-71
2022/10/20 04:19:50;;;;;;;11.75;7.35;;;;;;;-143.48;83.28;79269.63;5015799;28;20470;-72
2022/10/20 04:22:15;;;;;;;17.95;7.68;;;;;;;-143.48;83.80;79297.38;5014367;28;20370;-72
2022/10/20 04:24:41;;;;;;;11.48;7.05;;;;;;;-143.48;84.09;79277.53;5015532;28;20026;-72
2022/10/20 04:27:06;;;;;;;14.52;7.35;;;;;;;-143.48;84.08;79257.72;5015580;28;20033;-72
2022/10/20 04:29:32;;;;;;;11.20;6.88;;;;;;;-143.48;83.14;79253.75;4997948;28;20029;-72
2022/10/20 04:31:57;;;;;;;13.15;7.43;;;;;;;-143.48;83.80;79253.75;5015550;28;20141;-72
2022/10/20 04:34:22;;;;;;;11.98;7.53;;;;;;;-143.48;84.06;79253.75;5015550;28;20022;-72
2022/10/20 04:36:48;;;;;;;13.23;7.40;;;;;;;-143.48;83.98;79253.75;4997872;28;20115;-72
2022/10/20 04:39:14;;;;;;;12.95;7.78;;;;;;;-143.48;83.54;79245.81;5015345;28;20017;-72
2022/10/20 04:41:40;;;;;;;11.85;6.97;;;;;;;-143.48;84.07;79255.72;5015226;28;20018;-72
2022/10/20 04:44:05;;;;;;;13.90;8.27;;;;;;;-143.48;83.89;79237.88;5015555;28;20022;-72
2022/10/20 04:46:30;;;;;;;16.23;7.40;;;;;;;-143.48;83.80;79231.94;5015202;28;20367;-71
2022/10/20 04:48:56;;;;;;;11.93;7.50;;;;;;;-143.48;83.74;79241.84;5015048;28;20378;-72
2022/10/20 04:51:21;;;;;;;15.60;7.90;;;;;;;-143.48;83.66;79231.94;5015274;28;20038;-72
2022/10/20 04:53:46;;;;;;;12.68;8.10;;;;;;;-143.48;83.18;79214.06;4997437;28;20091;-72
2022/10/20 04:56:21;;;;;;;19.55;8.40;;;;;;;-143.48;82.96;79198.19;5015085;28;20087;-72
2022/10/20 04:58:55;;;;;;;16.70;7.47;;;;;;;-143.48;83.07;79180.34;4997354;28;20018;-71
2022/10/20 05:01:22;;;;;;;15.43;7.28;;;;;;;-143.48;83.22;79172.41;5014928;28;20029;-71
2022/10/20 05:03:48;;;;;;;13.07;7.35;;;;;;;-143.48;82.65;79166.47;5015137;28;20025;-72
2022/10/20 05:06:15;;;;;;;11.50;7.40;;;;;;;-143.48;81.87;79170.44;5014830;28;20532;-71
2022/10/20 05:08:42;;;;;;;13.65;7.47;;;;;;;-143.48;82.50;79174.41;4997354;28;20029;-72
2022/10/20 05:11:09;;;;;;;18.05;7.75;;;;;;;-143.48;82.77;79174.41;4997604;28;20026;-71
2022/10/20 05:13:34;;;;;;;13.77;8.18;;;;;;;-143.48;83.48;79174.41;5014620;28;20080;-72
2022/10/20 05:16:00;;;;;;;15.90;7.90;;;;;;;-143.48;83.43;79172.41;4996915;28;20030;-72
2022/10/20 05:18:25;;;;;;;16.35;7.72;;;;;;;-143.48;83.53;79162.50;5014801;28;20021;-72
2022/10/20 05:20:51;;;;;;;12.60;7.60;;;;;;;-143.48;83.30;79144.66;5014582;28;20499;-71
2022/10/20 05:23:16;;;;;;;15.27;7.95;;;;;;;-143.48;82.99;79134.72;5014749;28;20068;-70
2022/10/20 05:25:41;;;;;;;12.02;8.05;;;;;;;-143.48;83.23;79120.84;5013343;28;20022;-72
2022/10/20 05:28:06;;;;;;;19.25;8.73;;;;;;;-143.48;82.75;79128.78;5014373;28;20040;-72
2022/10/20 05:30:35;;;;;;;12.57;7.43;;;;;;;-143.48;82.89;79144.66;4997042;28;20039;-71
2022/10/20 05:33:01;;;;;;;15.38;8.10;;;;;;;-143.48;82.61;79134.72;4996807;28;20033;-70
2022/10/20 05:35:27;;;;;;;16.48;7.88;;;;;;;-143.48;82.60;79136.72;5018649;28;20041;-74
2022/10/20 05:37:52;;;;;;;15.88;8.20;;;;;;;-143.48;82.95;79118.84;5004217;28;20109;-76
2022/10/20 05:40:21;;;;;;;12.98;7.93;;;;;;;-143.48;83.22;79114.88;5022514;28;20029;-75
2022/10/20 05:42:47;;;;;;;12.80;8.60;;;;;;;-143.48;82.90;79104.97;5019622;28;20036;-73
2022/10/20 05:45:13;;;;;;;16.13;8.18;;;;;;;-143.48;82.49;79108.94;5019760;28;20025;-73
2022/10/20 05:47:38;;;;;;;12.00;7.65;;;;;;;-143.48;82.31;79099.03;5019075;28;20029;-73
2022/10/20 05:50:05;;;;;;;14.38;7.93;;;;;;;-143.48;82.53;79097.03;5001994;28;20056;-73
2022/10/20 05:52:30;;;;;;;13.52;8.10;;;;;;;-143.48;82.65;79091.09;5002660;28;20052;-72
2022/10/20 05:54:56;;;;;;;13.90;8.55;;;;;;;-143.48;82.67;79081.16;5017469;28;20093;-71
2022/10/20 05:57:21;;;;;;;16.30;7.63;;;;;;;-143.48;82.86;79091.09;5018144;28;20026;-72
2022/10/20 05:59:46;;;;;;;16.05;8.13;;;;;;;-143.48;82.83;79091.09;5014168;28;20026;-71
2022/10/20 06:02:12;;;;;;;18.33;8.10;;;;;;;-143.48;82.88;79087.13;5014406;28;20581;-70
2022/10/20 06:04:37;;;;;;;15.00;8.20;;;;;;;-143.48;83.01;79087.13;5014512;28;20030;-71
2022/10/20 06:07:04;;;;;;;15.25;8.25;;;;;;;-143.48;82.74;79065.31;5014011;28;20508;-72
2022/10/20 06:09:30;;;;;;;14.32;8.05;;;;;;;-143.48;82.54;79063.31;5013718;28;20079;-72
2022/10/20 06:11:56;;;;;;;16.48;7.95;;;;;;;-143.48;81.79;79053.41;5013572;28;20033;-71
2022/10/20 06:14:21;;;;;;;13.25;7.90;;;;;;;-143.48;81.81;79063.31;5014846;28;20029;-71
2022/10/20 06:16:52;;;;;;;15.57;7.68;;;;;;;-143.48;81.88;79067.28;5017499;28;20366;-75
2022/10/20 06:19:18;;;;;;;20.33;8.50;;;;;;;-143.48;82.65;79071.25;5014704;28;20034;-72
2022/10/20 06:21:44;;;;;;;14.77;8.48;;;;;;;-143.48;82.43;79075.22;5017647;28;20033;-74
2022/10/20 06:24:10;;;;;;;13.57;8.10;;;;;;;-143.48;82.20;79067.28;4999908;28;20029;-72
2022/10/20 06:26:36;;;;;;;16.90;8.30;;;;;;;-143.48;82.97;79087.13;5012831;28;20034;-70
2022/10/20 06:29:05;;;;;;;16.67;8.70;;;;;;;-143.48;83.00;79095.06;5013389;28;20037;-71
2022/10/20 06:31:37;;;;;;;15.75;8.65;;;;;;;-143.48;82.73;79081.16;5013413;28;20362;-72
2022/10/20 06:34:05;;;;;;;17.88;8.25;;;;;;;-143.48;82.00;79065.31;5013525;28;20076;-71
2022/10/20 06:36:34;;;;;;;17.63;8.30;;;;;;;-143.48;82.75;79083.16;5013417;28;20056;-71
2022/10/20 06:39:00;;;;;;;12.55;8.60;;;;;;;-143.48;82.96;79073.25;5013313;28;20523;-71
2022/10/20 06:41:26;;;;;;;24.25;9.27;;;;;;;-143.48;83.18;79061.34;5012203;28;20018;-72
2022/10/20 06:43:59;;;;;;;13.95;8.63;;;;;;;-143.48;83.28;79067.28;5013274;28;20034;-71
2022/10/20 06:46:30;;;;;;;16.95;7.70;;;;;;;-143.48;83.04;79075.22;5013491;28;20443;-70
2022/10/20 06:48:58;;;;;;;16.05;9.18;;;;;;;-143.48;83.01;79043.47;5013149;28;20046;-72
2022/10/20 06:51:23;;;;;;;14.65;8.65;;;;;;;-143.48;82.63;79035.56;5012022;28;20065;-72
2022/10/20 06:53:50;;;;;;;16.30;8.55;;;;;;;-143.48;82.27;79021.66;5013315;28;20080;-72
2022/10/20 06:56:18;;;;;;;17.00;8.45;;;;;;;-143.48;82.46;79023.66;5013371;28;20029;-72
2022/10/20 06:58:46;;;;;;;16.40;8.75;;;;;;;-143.48;82.44;79007.78;5013262;28;20087;-72
2022/10/20 07:01:26;;;;;;;18.30;8.80;;;;;;;-143.48;82.04;79011.75;4995675;28;20026;-71
2022/10/20 07:03:54;;;;;;;16.05;9.07;;;;;;;-143.48;81.87;79005.78;5011937;28;20521;-71
2022/10/20 07:06:33;;;;;;;15.13;8.88;;;;;;;-143.48;82.59;79009.75;5013045;28;20030;-71
2022/10/20 07:09:00;;;;;;;16.52;8.20;;;;;;;-143.48;82.80;79003.81;5012866;28;20032;-71
2022/10/20 07:11:30;;;;;;;21.38;9.02;;;;;;;-143.48;82.20;79015.72;5012952;28;20481;-71
2022/10/20 07:14:00;;;;;;;16.83;8.32;;;;;;;-143.48;82.62;79019.69;5012899;28;20049;-72
2022/10/20 07:16:28;;;;;;;18.55;8.55;;;;;;;-143.48;82.43;78995.88;5011855;28;20041;-71
2022/10/20 07:18:53;;;;;;;17.27;9.25;;;;;;;-143.48;82.04;78980.00;5012989;28;20022;-72
2022/10/20 07:21:21;;;;;;;19.38;9.10;;;;;;;-143.48;81.48;78972.06;4995468;28;20037;-72
2022/10/20 07:23:48;;;;;;;17.92;9.50;;;;;;;-143.48;82.04;78958.19;5011814;28;20032;-71
2022/10/20 07:26:15;;;;;;;18.08;9.45;;;;;;;-143.48;81.21;78966.13;5012851;28;20033;-71
2022/10/20 07:28:43;;;;;;;16.88;9.02;;;;;;;-143.48;81.29;78950.25;4995401;28;20421;-72
2022/10/20 07:31:14;;;;;;;13.43;8.80;;;;;;;-143.48;81.00;78930.41;5013349;28;20026;-71
2022/10/20 07:33:39;;;;;;;18.13;8.85;;;;;;;-143.48;80.89;78922.50;4994983;28;20477;-72
2022/10/20 07:36:31;;;;;;;14.02;9.10;;;;;;;-143.48;80.57;78928.44;5012050;28;20105;-72
2022/10/20 07:38:59;;;;;;;19.40;8.82;;;;;;;-143.48;80.45;78924.47;5011515;28;20034;-71
2022/10/20 07:41:25;;;;;;;13.82;8.63;;;;;;;-143.48;80.27;78924.47;5011819;28;20037;-71
2022/10/20 07:43:51;;;;;;;15.57;9.13;;;;;;;-143.48;80.81;78920.50;4994217;28;20097;-72
2022/10/20 07:46:17;;;;;;;14.73;8.82;;;;;;;-143.48;81.21;78914.56;4993183;28;20026;-72
2022/10/20 07:48:42;;;;;;;16.75;8.63;;;;;;;-143.48;80.06;78892.75;4993611;28;20062;-71
2022/10/20 07:51:14;;;;;;;14.45;8.82;;;;;;;-143.48;80.04;78884.81;5010940;28;20069;-71
2022/10/20 07:53:39;;;;;;;21.50;8.98;;;;;;;-143.48;79.83;78872.91;5013533;28;20022;-72
2022/10/20 07:56:05;;;;;;;23.83;9.52;;;;;;;-143.48;79.53;78843.16;5013313;28;20040;-71
2022/10/20 07:58:30;;;;;;;15.88;8.27;;;;;;;-143.48;79.48;78872.91;5016038;28;20033;-72
2022/10/20 08:00:56;;;;;;;14.05;8.82;;;;;;;-143.48;79.63;78861.00;5016213;28;20076;-71
2022/10/20 08:03:21;;;;;;;14.77;8.88;;;;;;;-143.48;79.33;78855.06;5016016;28;20033;-71
2022/10/20 08:05:46;;;;;;;14.88;8.57;;;;;;;-143.48;79.24;78833.22;5015872;28;20359;-68
2022/10/20 08:08:12;;;;;;;20.63;8.40;;;;;;;-143.48;79.22;78833.22;5015977;28;20385;-72
2022/10/20 08:10:37;;;;;;;15.43;9.02;;;;;;;-143.48;78.70;78809.44;5015957;28;20080;-73
2022/10/20 08:13:05;;;;;;;15.90;8.48;;;;;;;-143.48;78.18;78799.50;5017782;28;20089;-75
2022/10/20 08:15:31;;;;;;;12.75;8.30;;;;;;;-143.48;78.66;78807.44;5024924;28;20022;-76
2022/10/20 08:17:56;;;;;;;14.00;8.57;;;;;;;-143.48;77.58;78789.59;5024249;28;20053;-76
2022/10/20 08:20:22;;;;;;;14.40;9.05;;;;;;;-143.48;78.44;78785.63;5022783;28;20041;-73
2022/10/20 08:22:47;;;;;;;15.63;8.65;;;;;;;-143.48;77.60;78753.91;5008809;28;20017;-76
2022/10/20 08:25:13;;;;;;;22.40;8.52;;;;;;;-143.48;76.95;78749.94;5025430;28;20030;-75
2022/10/20 08:27:39;;;;;;;13.10;8.13;;;;;;;-143.48;77.01;78738.03;5025261;28;20077;-75
2022/10/20 08:30:05;;;;;;;15.02;8.48;;;;;;;-143.48;76.28;78736.03;5025060;28;20090;-74
2022/10/20 08:32:30;;;;;;;16.13;8.32;;;;;;;-143.48;76.01;78724.16;5017980;28;20026;-73
2022/10/20 08:34:55;;;;;;;15.95;7.97;;;;;;;-143.48;75.37;78690.44;5015644;28;20353;-73
2022/10/20 08:37:21;;;;;;;15.98;8.18;;;;;;;-143.48;75.67;78702.31;5015420;28;20053;-73
2022/10/20 08:39:46;;;;;;;13.30;8.43;;;;;;;-143.48;74.59;78680.50;5015642;28;20108;-73
2022/10/20 08:42:11;;;;;;;21.38;8.32;;;;;;;-143.48;74.75;78700.34;5015537;28;20488;-73
2022/10/20 08:44:40;;;;;;;16.75;8.35;;;;;;;-143.48;74.75;78688.44;4997749;28;20048;-73
2022/10/20 08:47:19;;;;;;;15.43;7.82;;;;;;;-143.48;74.22;78666.63;5014098;28;20026;-73
2022/10/20 08:49:45;;;;;;;15.80;7.95;;;;;;;-143.48;74.29;78658.69;5016265;28;20405;-73
2022/10/20 08:52:15;;;;;;;14.93;7.75;;;;;;;-143.48;74.23;78652.75;4997627;28;20473;-73
2022/10/20 08:54:41;;;;;;;15.65;8.05;;;;;;;-143.48;73.59;78638.84;4997342;28;20116;-73
2022/10/20 08:57:21;;;;;;;13.52;7.55;;;;;;;-143.48;73.63;78628.94;5013956;28;20449;-71
2022/10/20 08:59:49;;;;;;;16.40;7.97;;;;;;;-143.48;73.26;78624.97;5015070;28;20041;-73
2022/10/20 09:02:15;;;;;;;13.25;7.18;;;;;;;-143.48;73.11;78642.81;5014914;28;20033;-72
2022/10/20 09:04:48;;;;;;;14.48;8.40;;;;;;;-143.48;73.04;78623.00;5013336;28;20030;-72
2022/10/20 09:07:24;;;;;;;14.30;7.90;;;;;;;-143.48;72.89;78609.09;5014779;28;20133;-72
2022/10/20 09:09:50;;;;;;;14.45;7.63;;;;;;;-143.48;72.83;78601.19;4997362;28;20079;-73
2022/10/20 09:12:17;;;;;;;13.73;7.93;;;;;;;-143.48;72.21;78595.22;5015102;28;20022;-73
2022/10/20 09:14:42;;;;;;;12.10;7.85;;;;;;;-143.48;72.82;78599.19;5014708;28;20014;-73
2022/10/20 09:17:16;;;;;;;16.40;7.35;;;;;;;-143.48;74.01;78623.00;5014704;28;20032;-72
2022/10/20 09:19:50;;;;;;;13.57;8.43;;;;;;;-143.48;73.19;78601.19;4997428;28;20017;-73
2022/10/20 09:22:16;;;;;;;17.40;8.48;;;;;;;-143.48;73.32;78585.31;5014742;28;20474;-73
2022/10/20 09:24:43;;;;;;;16.63;7.97;;;;;;;-143.48;73.85;78609.09;4996973;28;20093;-74
2022/10/20 09:27:23;;;;;;;19.08;7.85;;;;;;;-143.48;73.93;78587.28;5013781;28;20374;-73
2022/10/20 09:29:49;;;;;;;15.32;8.52;;;;;;;-143.48;74.92;78607.13;5014984;28;20022;-73
2022/10/20 09:32:20;;;;;;;15.07;8.20;;;;;;;-143.48;74.44;78591.25;5013211;28;20440;-73
2022/10/20 09:34:45;;;;;;;15.00;7.95;;;;;;;-143.48;73.95;78575.41;5013310;28;20481;-72
2022/10/20 09:37:15;;;;;;;12.98;8.10;;;;;;;-143.48;73.72;78587.28;5014854;28;20036;-73
2022/10/20 09:39:49;;;;;;;12.70;8.02;;;;;;;-143.48;73.96;78567.47;5013777;28;20124;-73
2022/10/20 09:42:24;;;;;;;15.95;8.30;;;;;;;-143.48;73.98;78561.50;5015104;28;20025;-72
2022/10/20 09:44:57;;;;;;;17.77;7.97;;;;;;;-143.48;74.59;78577.38;5014848;28;20030;-73
2022/10/20 09:47:23;;;;;;;15.25;8.27;;;;;;;-143.48;73.95;78569.44;5014588;28;20096;-72
2022/10/20 09:50:01;;;;;;;13.73;7.60;;;;;;;-143.48;74.12;78569.44;5014146;28;20058;-72
2022/10/20 09:52:33;;;;;;;15.20;8.13;;;;;;;-143.48;74.56;78569.44;5014740;28;20064;-71
2022/10/20 09:55:27;;;;;;;13.93;8.35;;;;;;;-143.48;74.11;78543.66;5014442;28;20049;-72
2022/10/20 09:57:54;;;;;;;14.82;7.65;;;;;;;-143.48;74.25;78547.63;5011497;28;20033;-73
2022/10/20 10:00:31;;;;;;;18.38;7.90;;;;;;;-143.48;74.83;78553.56;5016502;28;20382;-72
2022/10/20 10:03:20;;;;;;;13.02;8.05;;;;;;;-143.48;74.78;78539.69;5004133;28;20093;-73
2022/10/20 10:05:51;;;;;;;14.82;8.38;;;;;;;-143.48;74.13;78541.69;5024524;28;20033;-74
2022/10/20 10:08:18;;;;;;;16.70;8.90;;;;;;;-143.48;74.82;78543.66;5021555;28;20421;-73
2022/10/20 10:10:55;;;;;;;14.98;8.27;;;;;;;-143.48;74.56;78529.78;5007243;28;20030;-73
2022/10/20 10:13:25;;;;;;;17.17;8.30;;;;;;;-143.48;74.57;78523.81;5010005;28;20124;-73
2022/10/20 10:16:03;;;;;;;14.40;7.75;;;;;;;-143.48;74.64;78525.81;5019792;28;20022;-72
2022/10/20 10:18:29;;;;;;;15.20;8.48;;;;;;;-143.48;74.61;78529.78;5019559;28;20029;-73
2022/10/20 10:21:01;;;;;;;13.75;7.47;;;;;;;-143.48;75.10;78517.88;5022358;28;20125;-74
2022/10/20 10:23:29;;;;;;;16.80;8.60;;;;;;;-143.48;74.98;78523.81;5026013;28;20026;-76
2022/10/20 10:25:54;;;;;;;14.18;8.23;;;;;;;-143.48;75.17;78511.94;5031253;28;20026;-74
2022/10/20 10:28:40;;;;;;;13.25;7.97;;;;;;;-143.48;74.44;78478.22;5033367;28;20040;-74
2022/10/20 10:31:15;;;;;;;15.77;8.95;;;;;;;-143.48;75.70;78502.00;5031214;28;20022;-75
2022/10/20 10:33:40;;;;;;;16.50;8.85;;;;;;;-143.48;75.56;78496.06;5031102;28;20041;-77
2022/10/20 10:36:20;;;;;;;17.15;8.27;;;;;;;-143.48;75.90;78513.91;5030257;28;20018;-75
2022/10/20 10:38:45;;;;;;;16.25;8.07;;;;;;;-143.48;76.21;78498.03;5029633;28;20053;-77
2022/10/20 10:41:17;;;;;;;15.80;8.80;;;;;;;-143.48;75.70;78472.25;5010101;28;20026;-75
2022/10/20 10:43:54;;;;;;;16.83;8.90;;;;;;;-143.48;75.65;78472.25;5002961;28;20392;-73
2022/10/20 10:46:26;;;;;;;13.35;8.43;;;;;;;-143.48;75.78;78452.44;4999561;28;20026;-73
2022/10/20 10:49:09;;;;;;;16.83;9.02;;;;;;;-143.48;76.88;78470.28;5015914;28;20080;-74
2022/10/20 10:51:43;;;;;;;16.25;8.52;;;;;;;-143.48;76.94;78446.47;5017026;28;20030;-73
2022/10/20 10:54:38;;;;;;;16.58;8.77;;;;;;;-143.48;77.31;78442.50;4998631;28;20034;-74
2022/10/20 10:57:18;;;;;;;14.88;8.93;;;;;;;-143.48;78.22;78446.47;5015504;28;20087;-73
2022/10/20 10:59:47;;;;;;;20.20;9.15;;;;;;;-143.48;79.22;78438.53;5015259;28;20095;-73
2022/10/20 11:02:49;;;;;;;18.75;9.52;;;;;;;-143.48;80.08;78448.47;4997700;28;20026;-75
2022/10/20 11:05:17;;;;;;;16.73;9.27;;;;;;;-143.48;79.95;78460.38;5013080;28;20042;-73
2022/10/20 11:08:11;;;;;;;17.20;9.80;;;;;;;-143.48;80.23;78432.59;4996936;28;20026;-76
2022/10/20 11:11:08;;;;;;;18.05;9.55;;;;;;;-143.48;81.46;78428.63;5014658;28;20045;-74
2022/10/20 11:14:05;;;;;;;15.65;9.73;;;;;;;-143.48;80.88;78426.66;4996081;28;20112;-74
2022/10/20 11:16:49;;;;;;;16.38;9.90;;;;;;;-143.48;81.63;78420.69;4996332;28;20112;-73
2022/10/20 11:19:32;;;;;;;20.60;10.30;;;;;;;-143.48;82.88;78418.72;5013366;28;20030;-73